Time;durP1;ratioP1;P1;durP2;ratioP2;P2;SDS_P1;SDS_P2;PMS_P1;PMS_P2;Temp;Humidity;BMP_temperature;BMP_pressure;BME280_temperature;BME280_humidity;BME280_pressure;Samples;Min_cycle;Max_cycle;Signal;HPM_P1;HPM_P2
2022/06/04 00:01:35;;;;;;;;;22.67;22.67;;;;;;;;5058140;28;46472;-64
2022/06/04 00:04:03;;;;;;;;;28.33;23.33;;;;;;;;5058676;28;45257;-64
2022/06/04 00:06:28;;;;;;;;;20.67;19.33;;;;;;;;5058960;28;45304;-64
2022/06/04 00:08:54;;;;;;;;;21.67;21.33;;;;;;;;5058547;28;45541;-65
2022/06/04 00:16:46;;;;;;;;;20.33;20.33;;;;;;;;5058506;28;45171;-65
2022/06/04 00:19:11;;;;;;;;;24.67;22.33;;;;;;;;5058815;28;45361;-64
2022/06/04 00:21:37;;;;;;;;;27.00;25.67;;;;;;;;5058573;28;46652;-65
2022/06/04 00:24:02;;;;;;;;;21.00;20.00;;;;;;;;5058448;28;45424;-65
2022/06/04 00:26:30;;;;;;;;;27.33;25.67;;;;;;;;5058625;28;45142;-65
2022/06/04 00:28:55;;;;;;;;;23.67;21.67;;;;;;;;5058587;28;45562;-65
2022/06/04 00:31:23;;;;;;;;;24.67;22.00;;;;;;;;5057956;28;46242;-65
2022/06/04 00:33:48;;;;;;;;;24.00;22.67;;;;;;;;5058553;28;45293;-64
2022/06/04 00:36:14;;;;;;;;;23.67;22.67;;;;;;;;5057976;28;45462;-65
2022/06/04 00:38:39;;;;;;;;;23.00;22.33;;;;;;;;5058609;28;45249;-64
2022/06/04 00:41:07;;;;;;;;;20.67;20.00;;;;;;;;5058226;28;46367;-65
2022/06/04 00:43:56;;;;;;;;;27.00;24.00;;;;;;;;5057964;28;45471;-64
2022/06/04 00:46:42;;;;;;;;;19.67;19.67;;;;;;;;5058301;28;45334;-64
2022/06/04 00:49:12;;;;;;;;;22.67;22.00;;;;;;;;5058151;28;45467;-64
2022/06/04 00:51:42;;;;;;;;;21.67;21.33;;;;;;;;5037305;28;46441;-64
2022/06/04 00:54:07;;;;;;;;;22.00;22.00;;;;;;;;5039887;28;45310;-64
2022/06/04 00:56:35;;;;;;;;;23.00;19.67;;;;;;;;5057726;28;45443;-64
2022/06/04 00:59:26;;;;;;;;;16.33;15.67;;;;;;;;5058514;28;45327;-64
2022/06/04 01:02:04;;;;;;;;;18.33;15.67;;;;;;;;5015664;28;45835;-64
2022/06/04 01:04:47;;;;;;;;;18.33;18.33;;;;;;;;5015739;28;45410;-64
2022/06/04 01:07:35;;;;;;;;;18.00;15.67;;;;;;;;5015301;28;45370;-64
2022/06/04 01:10:09;;;;;;;;;23.67;19.33;;;;;;;;4956753;28;45665;-64
2022/06/04 01:12:37;;;;;;;;;19.33;16.67;;;;;;;;4956270;28;45614;-64
2022/06/04 01:15:12;;;;;;;;;17.00;15.33;;;;;;;;4956624;28;45486;-64
2022/06/04 01:18:00;;;;;;;;;21.00;16.33;;;;;;;;4956902;28;45263;-64
2022/06/04 01:20:35;;;;;;;;;15.67;15.67;;;;;;;;4940890;28;45563;-64
2022/06/04 01:23:17;;;;;;;;;18.67;18.00;;;;;;;;4937040;28;47117;-65
2022/06/04 01:25:47;;;;;;;;;19.00;18.67;;;;;;;;4939243;28;45316;-64
2022/06/04 01:28:16;;;;;;;;;15.33;13.67;;;;;;;;4956441;28;45564;-64
2022/06/04 01:30:53;;;;;;;;;20.00;16.33;;;;;;;;4956432;28;45292;-64
2022/06/04 01:33:21;;;;;;;;;23.33;20.33;;;;;;;;4948660;28;45383;-64
2022/06/04 01:35:56;;;;;;;;;17.33;17.33;;;;;;;;4936911;28;45439;-65
2022/06/04 01:38:28;;;;;;;;;19.67;16.67;;;;;;;;4942922;28;45356;-65
2022/06/04 01:41:06;;;;;;;;;18.00;18.00;;;;;;;;4956706;28;45368;-64
2022/06/04 01:43:36;;;;;;;;;19.67;17.33;;;;;;;;4956657;28;47217;-64
2022/06/04 01:46:23;;;;;;;;;21.00;19.33;;;;;;;;4960930;28;45240;-64
2022/06/04 01:48:51;;;;;;;;;18.67;18.33;;;;;;;;5042887;28;45398;-64
2022/06/04 01:51:21;;;;;;;;;20.67;19.67;;;;;;;;5057626;28;45322;-64
2022/06/04 01:53:49;;;;;;;;;16.67;16.67;;;;;;;;5056844;28;46527;-64
2022/06/04 01:56:20;;;;;;;;;21.33;20.33;;;;;;;;5056974;28;45269;-64
2022/06/04 01:58:57;;;;;;;;;29.00;20.33;;;;;;;;5057439;28;45450;-65
2022/06/04 02:01:26;;;;;;;;;19.67;19.67;;;;;;;;5057199;28;45578;-65
2022/06/04 02:03:56;;;;;;;;;23.33;19.33;;;;;;;;5058556;28;45404;-65
2022/06/04 02:06:26;;;;;;;;;18.00;16.67;;;;;;;;5060732;28;45233;-64
2022/06/04 02:09:04;;;;;;;;;24.67;21.00;;;;;;;;5060593;28;45358;-64
2022/06/04 02:11:32;;;;;;;;;23.67;20.00;;;;;;;;5060702;28;45457;-65
2022/06/04 02:14:01;;;;;;;;;18.33;16.67;;;;;;;;5060467;28;45800;-65
2022/06/04 02:16:35;;;;;;;;;20.33;18.33;;;;;;;;5060329;28;45510;-65
2022/06/04 02:19:00;;;;;;;;;20.00;18.00;;;;;;;;5060537;28;45424;-64
2022/06/04 02:21:27;;;;;;;;;18.00;16.33;;;;;;;;5060734;28;45433;-65
2022/06/04 02:23:55;;;;;;;;;20.67;16.67;;;;;;;;5060247;28;47567;-64
2022/06/04 02:26:21;;;;;;;;;20.67;18.67;;;;;;;;5060308;28;45424;-65
2022/06/04 02:28:49;;;;;;;;;19.33;18.00;;;;;;;;5060427;28;45242;-64
2022/06/04 02:31:26;;;;;;;;;16.00;16.00;;;;;;;;5060196;28;45542;-64
2022/06/04 02:33:56;;;;;;;;;19.67;18.00;;;;;;;;5060024;28;46201;-64
2022/06/04 02:36:29;;;;;;;;;20.33;18.00;;;;;;;;5060105;28;45372;-64
2022/06/04 02:39:11;;;;;;;;;19.00;19.00;;;;;;;;5060434;28;45454;-64
2022/06/04 02:41:53;;;;;;;;;17.33;17.33;;;;;;;;5060543;28;45401;-64
2022/06/04 02:44:29;;;;;;;;;21.67;21.00;;;;;;;;5059771;28;46804;-65
2022/06/04 02:47:06;;;;;;;;;20.33;15.67;;;;;;;;5059753;28;45278;-64
2022/06/04 02:49:37;;;;;;;;;21.00;18.67;;;;;;;;5060246;28;45500;-64
2022/06/04 02:52:05;;;;;;;;;16.00;16.00;;;;;;;;5060430;28;45237;-64
2022/06/04 02:54:35;;;;;;;;;22.67;18.67;;;;;;;;5059730;28;45354;-65
2022/06/04 02:57:05;;;;;;;;;20.67;19.00;;;;;;;;5058926;28;45337;-64
2022/06/04 02:59:33;;;;;;;;;19.67;18.33;;;;;;;;5058791;28;45297;-64
2022/06/04 03:02:02;;;;;;;;;15.67;15.67;;;;;;;;5058673;28;45448;-64
2022/06/04 03:04:28;;;;;;;;;18.67;17.33;;;;;;;;5058478;28;47211;-64
2022/06/04 03:06:53;;;;;;;;;18.67;18.00;;;;;;;;5058742;28;45147;-65
2022/06/04 03:09:19;;;;;;;;;16.00;15.33;;;;;;;;5058718;28;45534;-65
2022/06/04 03:11:46;;;;;;;;;19.00;19.00;;;;;;;;5058638;28;45147;-65
2022/06/04 03:14:15;;;;;;;;;16.00;16.00;;;;;;;;5057769;28;46206;-65
2022/06/04 03:16:42;;;;;;;;;16.67;16.33;;;;;;;;5058120;28;45287;-65
2022/06/04 03:19:08;;;;;;;;;17.33;14.00;;;;;;;;5058529;28;45316;-65
2022/06/04 03:21:37;;;;;;;;;13.67;13.67;;;;;;;;5058683;28;45286;-65
2022/06/04 03:24:06;;;;;;;;;16.67;16.00;;;;;;;;5057509;28;45420;-64
2022/06/04 03:26:31;;;;;;;;;21.00;15.33;;;;;;;;5058001;28;45254;-65
2022/06/04 03:28:56;;;;;;;;;18.33;18.33;;;;;;;;5058240;28;45538;-65
2022/06/04 03:31:22;;;;;;;;;14.00;13.00;;;;;;;;5058367;28;45398;-65
2022/06/04 03:33:47;;;;;;;;;17.33;14.33;;;;;;;;5058160;28;46601;-65
2022/06/04 03:36:12;;;;;;;;;20.67;16.00;;;;;;;;5058048;28;45239;-64
2022/06/04 03:38:38;;;;;;;;;14.67;14.67;;;;;;;;5058218;28;45175;-65
2022/06/04 03:41:03;;;;;;;;;17.00;14.67;;;;;;;;5058053;28;45443;-65
2022/06/04 03:43:28;;;;;;;;;14.33;14.33;;;;;;;;5057953;28;45732;-65
2022/06/04 03:45:54;;;;;;;;;12.33;12.33;;;;;;;;5057693;28;45228;-64
2022/06/04 03:48:19;;;;;;;;;11.00;11.00;;;;;;;;5058164;28;45312;-65
2022/06/04 03:50:45;;;;;;;;;15.00;12.33;;;;;;;;5058233;28;45353;-65
2022/06/04 03:53:10;;;;;;;;;15.33;12.33;;;;;;;;5057742;28;46512;-65
2022/06/04 03:55:35;;;;;;;;;11.67;11.67;;;;;;;;5014726;28;1226564;-65
2022/06/04 03:58:00;;;;;;;;;16.33;14.00;;;;;;;;5058933;28;45202;-66
2022/06/04 04:00:31;;;;;;;;;13.00;11.33;;;;;;;;5059108;28;45245;-64
2022/06/04 04:02:57;;;;;;;;;14.67;13.00;;;;;;;;5058934;28;46394;-65
2022/06/04 04:05:26;;;;;;;;;12.33;12.33;;;;;;;;5058836;28;45441;-64
2022/06/04 04:07:54;;;;;;;;;11.00;11.00;;;;;;;;5059130;28;45352;-65
2022/06/04 04:10:20;;;;;;;;;12.33;11.00;;;;;;;;5058901;28;45394;-64
2022/06/04 04:12:45;;;;;;;;;12.00;11.00;;;;;;;;5058525;28;46575;-65
2022/06/04 04:15:11;;;;;;;;;11.33;10.33;;;;;;;;5058305;28;45395;-65
2022/06/04 04:17:39;;;;;;;;;10.33;10.33;;;;;;;;5058719;28;45234;-64
2022/06/04 04:20:15;;;;;;;;;12.00;12.00;;;;;;;;5058890;28;45558;-65
2022/06/04 04:22:40;;;;;;;;;9.67;9.33;;;;;;;;5058256;28;45254;-64
2022/06/04 04:25:06;;;;;;;;;11.00;11.00;;;;;;;;5058133;28;45290;-64
2022/06/04 04:27:32;;;;;;;;;9.33;9.33;;;;;;;;5057983;28;45753;-64
2022/06/04 04:29:59;;;;;;;;;10.33;10.33;;;;;;;;5058659;28;45313;-65
2022/06/04 04:32:33;;;;;;;;;12.67;9.67;;;;;;;;5058337;28;45499;-65
2022/06/04 04:35:01;;;;;;;;;15.33;12.33;;;;;;;;5058332;28;45235;-65
2022/06/04 04:37:26;;;;;;;;;11.33;11.33;;;;;;;;5058378;28;45427;-65
2022/06/04 04:39:54;;;;;;;;;13.67;11.67;;;;;;;;5058556;28;45321;-65
2022/06/04 04:42:19;;;;;;;;;9.33;9.33;;;;;;;;5058243;28;45550;-65
2022/06/04 04:44:44;;;;;;;;;11.00;9.00;;;;;;;;5057841;28;45318;-64
2022/06/04 04:47:09;;;;;;;;;10.33;10.33;;;;;;;;5058461;28;45209;-65
2022/06/04 04:49:35;;;;;;;;;8.67;8.67;;;;;;;;5058532;28;45251;-66
2022/06/04 04:52:00;;;;;;;;;8.33;8.33;;;;;;;;5057555;28;46368;-65
2022/06/04 04:54:26;;;;;;;;;4.67;4.67;;;;;;;;5058219;28;45234;-64
2022/06/04 04:56:52;;;;;;;;;13.67;10.00;;;;;;;;5058034;28;45416;-64
2022/06/04 04:59:17;;;;;;;;;8.00;8.00;;;;;;;;5058056;28;45299;-64
2022/06/04 05:01:42;;;;;;;;;9.00;8.67;;;;;;;;5057406;28;45364;-64
2022/06/04 05:04:08;;;;;;;;;7.67;7.67;;;;;;;;5057740;28;45727;-65
2022/06/04 05:06:33;;;;;;;;;12.67;8.67;;;;;;;;5057956;28;45317;-64
2022/06/04 05:09:00;;;;;;;;;8.67;8.33;;;;;;;;5057801;28;45391;-64
2022/06/04 05:11:27;;;;;;;;;11.00;8.33;;;;;;;;5057757;28;46240;-65
2022/06/04 05:13:53;;;;;;;;;11.67;10.33;;;;;;;;5057656;28;45479;-64
2022/06/04 05:16:19;;;;;;;;;10.00;8.67;;;;;;;;5057840;28;45463;-65
2022/06/04 05:18:45;;;;;;;;;9.67;8.33;;;;;;;;5057890;28;45517;-64
2022/06/04 05:21:21;;;;;;;;;9.33;7.67;;;;;;;;5057384;28;46473;-65
2022/06/04 05:23:47;;;;;;;;;8.33;8.33;;;;;;;;5057558;28;45328;-66
2022/06/04 05:26:13;;;;;;;;;10.33;9.00;;;;;;;;5057433;28;45342;-65
2022/06/04 05:28:38;;;;;;;;;12.00;9.33;;;;;;;;5057685;28;45432;-65
2022/06/04 05:31:03;;;;;;;;;8.33;7.00;;;;;;;;5056774;28;46313;-65
2022/06/04 05:33:29;;;;;;;;;7.00;7.00;;;;;;;;5057682;28;45396;-65
2022/06/04 05:35:54;;;;;;;;;9.33;7.67;;;;;;;;5057674;28;45870;-65
2022/06/04 05:38:19;;;;;;;;;13.00;8.67;;;;;;;;5057620;28;45435;-65
2022/06/04 05:40:44;;;;;;;;;7.67;7.67;;;;;;;;5057322;28;46173;-65
2022/06/04 05:43:10;;;;;;;;;8.67;8.67;;;;;;;;5057455;28;45406;-65
2022/06/04 05:45:35;;;;;;;;;7.00;7.00;;;;;;;;5057243;28;45449;-65
2022/06/04 05:48:01;;;;;;;;;11.00;9.33;;;;;;;;5056052;28;45339;-66
2022/06/04 05:50:26;;;;;;;;;8.33;8.33;;;;;;;;5057350;28;45353;-65
2022/06/04 05:52:51;;;;;;;;;10.33;8.67;;;;;;;;5057150;28;45391;-64
2022/06/04 05:55:16;;;;;;;;;10.67;9.00;;;;;;;;5056964;28;45418;-65
2022/06/04 05:57:42;;;;;;;;;8.67;7.67;;;;;;;;5057030;28;45403;-66
2022/06/04 06:00:08;;;;;;;;;9.00;7.00;;;;;;;;5055874;28;45627;-65
2022/06/04 06:02:37;;;;;;;;;7.00;6.00;;;;;;;;5056889;28;45447;-65
2022/06/04 06:05:03;;;;;;;;;8.33;7.67;;;;;;;;5057210;28;45367;-65
2022/06/04 06:07:28;;;;;;;;;12.00;9.00;;;;;;;;5057125;28;45528;-66
2022/06/04 06:09:53;;;;;;;;;10.67;7.00;;;;;;;;5057039;28;46499;-65
2022/06/04 06:12:19;;;;;;;;;11.67;10.00;;;;;;;;5056814;28;45491;-65
2022/06/04 06:14:44;;;;;;;;;6.33;6.33;;;;;;;;5056895;28;45575;-65
2022/06/04 06:17:09;;;;;;;;;9.00;9.00;;;;;;;;5057377;28;45259;-66
2022/06/04 06:19:34;;;;;;;;;8.33;8.33;;;;;;;;5056673;28;45358;-67
2022/06/04 06:21:59;;;;;;;;;9.00;8.00;;;;;;;;5056715;28;46831;-66
2022/06/04 06:24:25;;;;;;;;;11.00;10.00;;;;;;;;5057071;28;45320;-66
2022/06/04 06:26:54;;;;;;;;;7.67;7.00;;;;;;;;5056838;28;45522;-67
2022/06/04 06:29:21;;;;;;;;;10.00;9.00;;;;;;;;5052968;28;46143;-67
2022/06/04 06:31:46;;;;;;;;;8.33;8.33;;;;;;;;5054087;28;45531;-66
2022/06/04 06:34:12;;;;;;;;;12.00;10.33;;;;;;;;5056085;28;45222;-66
2022/06/04 06:36:37;;;;;;;;;10.33;6.00;;;;;;;;5056334;28;45492;-65
2022/06/04 06:39:03;;;;;;;;;10.00;10.00;;;;;;;;5054710;28;47211;-66
2022/06/04 06:41:28;;;;;;;;;12.33;9.33;;;;;;;;5055476;28;45422;-67
2022/06/04 06:43:54;;;;;;;;;11.00;9.33;;;;;;;;5053673;28;45442;-66
2022/06/04 06:46:27;;;;;;;;;10.67;7.67;;;;;;;;5056097;28;45265;-66
2022/06/04 06:48:58;;;;;;;;;9.33;7.33;;;;;;;;5056046;28;46873;-67
2022/06/04 06:51:25;;;;;;;;;10.33;9.00;;;;;;;;5059004;28;45382;-67
2022/06/04 06:53:50;;;;;;;;;7.67;6.67;;;;;;;;5059514;28;45498;-66
2022/06/04 06:56:17;;;;;;;;;10.00;8.00;;;;;;;;5051470;28;45459;-66
2022/06/04 06:58:42;;;;;;;;;9.33;9.33;;;;;;;;5039491;28;46375;-67
2022/06/04 07:01:08;;;;;;;;;13.33;10.33;;;;;;;;5038784;28;45298;-66
2022/06/04 07:03:36;;;;;;;;;14.00;11.00;;;;;;;;5039720;28;45251;-65
2022/06/04 07:06:02;;;;;;;;;7.67;7.67;;;;;;;;5039488;28;45448;-67
2022/06/04 07:08:27;;;;;;;;;11.00;8.33;;;;;;;;5038440;28;45260;-66
2022/06/04 07:10:52;;;;;;;;;8.00;7.00;;;;;;;;5039405;28;45169;-67
2022/06/04 07:13:18;;;;;;;;;8.00;8.00;;;;;;;;5039794;28;45266;-67
2022/06/04 07:15:43;;;;;;;;;8.00;8.00;;;;;;;;5034370;28;45788;-67
2022/06/04 07:18:13;;;;;;;;;9.00;6.67;;;;;;;;5035218;28;46536;-65
2022/06/04 07:20:38;;;;;;;;;10.67;8.00;;;;;;;;5037066;28;45490;-66
2022/06/04 07:23:03;;;;;;;;;9.00;9.00;;;;;;;;5038478;28;45436;-66
2022/06/04 07:25:29;;;;;;;;;4.67;4.33;;;;;;;;5037902;28;45412;-66
2022/06/04 07:27:54;;;;;;;;;8.00;8.00;;;;;;;;5037799;28;45612;-65
2022/06/04 07:30:19;;;;;;;;;8.00;7.33;;;;;;;;5038272;28;45372;-65
2022/06/04 07:32:45;;;;;;;;;8.67;7.67;;;;;;;;5038010;28;45481;-66
2022/06/04 07:35:10;;;;;;;;;11.00;9.00;;;;;;;;5038225;28;45440;-66
2022/06/04 07:37:35;;;;;;;;;8.33;8.33;;;;;;;;5037430;28;46172;-64
2022/06/04 07:40:00;;;;;;;;;10.67;10.67;;;;;;;;5038078;28;45577;-65
2022/06/04 07:42:27;;;;;;;;;11.33;10.33;;;;;;;;5038312;28;45428;-65
2022/06/04 07:44:52;;;;;;;;;13.00;10.67;;;;;;;;5037735;28;45293;-66
2022/06/04 07:47:18;;;;;;;;;12.00;9.33;;;;;;;;5037250;28;45400;-67
2022/06/04 07:49:43;;;;;;;;;10.33;10.33;;;;;;;;5037775;28;45393;-66
2022/06/04 07:52:08;;;;;;;;;11.67;10.67;;;;;;;;5036905;28;45409;-65
2022/06/04 07:54:34;;;;;;;;;10.33;9.67;;;;;;;;5037271;28;45348;-66
2022/06/04 07:57:00;;;;;;;;;10.00;9.00;;;;;;;;5036257;28;47365;-66
2022/06/04 07:59:26;;;;;;;;;12.33;10.33;;;;;;;;5037131;28;45370;-66
2022/06/04 08:01:51;;;;;;;;;12.67;12.00;;;;;;;;5035435;28;45430;-65
2022/06/04 08:04:16;;;;;;;;;13.67;12.00;;;;;;;;5037581;28;45298;-65
2022/06/04 08:06:42;;;;;;;;;12.00;9.00;;;;;;;;5036856;28;47196;-65
2022/06/04 08:09:07;;;;;;;;;8.00;8.00;;;;;;;;5036497;28;45473;-65
2022/06/04 08:11:33;;;;;;;;;11.67;11.67;;;;;;;;5036651;28;45412;-65
2022/06/04 08:13:58;;;;;;;;;11.67;10.67;;;;;;;;5036320;28;45773;-63
2022/06/04 08:16:23;;;;;;;;;9.33;9.33;;;;;;;;5034012;28;45834;-65
2022/06/04 08:18:48;;;;;;;;;13.00;12.33;;;;;;;;5033837;28;45679;-65
2022/06/04 08:21:14;;;;;;;;;12.67;11.33;;;;;;;;5034536;28;45497;-65
2022/06/04 08:23:40;;;;;;;;;10.00;10.00;;;;;;;;5034508;28;45525;-66
2022/06/04 08:26:07;;;;;;;;;14.00;11.67;;;;;;;;5035842;28;45443;-65
2022/06/04 08:28:33;;;;;;;;;11.67;11.67;;;;;;;;5035345;28;45383;-65
2022/06/04 08:31:04;;;;;;;;;12.00;8.67;;;;;;;;5036033;28;45499;-65
2022/06/04 08:33:30;;;;;;;;;10.67;10.67;;;;;;;;5036258;28;45508;-65
2022/06/04 08:35:55;;;;;;;;;13.00;12.33;;;;;;;;5036028;28;45985;-66
2022/06/04 08:38:21;;;;;;;;;13.33;10.00;;;;;;;;5036108;28;45746;-65
2022/06/04 08:40:48;;;;;;;;;14.67;12.33;;;;;;;;5035753;28;45469;-65
2022/06/04 08:43:33;;;;;;;;;14.00;11.00;;;;;;;;5036406;28;45397;-65
2022/06/04 08:46:00;;;;;;;;;13.00;10.33;;;;;;;;5035596;28;46781;-66
2022/06/04 08:48:31;;;;;;;;;10.00;9.00;;;;;;;;5035755;28;45856;-65
2022/06/04 08:50:57;;;;;;;;;16.00;14.00;;;;;;;;5035107;28;45777;-64
2022/06/04 08:53:27;;;;;;;;;13.00;12.33;;;;;;;;5035780;28;45705;-65
2022/06/04 08:58:43;;;;;;;;;18.67;13.67;;;;;;;;5035472;28;45401;-65
2022/06/04 09:01:10;;;;;;;;;15.00;15.00;;;;;;;;5035075;28;45469;-65
2022/06/04 09:03:38;;;;;;;;;14.00;12.33;;;;;;;;5035927;28;45438;-65
2022/06/04 09:06:18;;;;;;;;;14.00;14.00;;;;;;;;5035312;28;45384;-65
2022/06/04 09:08:52;;;;;;;;;17.67;15.67;;;;;;;;5035249;28;45472;-63
2022/06/04 09:11:21;;;;;;;;;13.67;12.00;;;;;;;;5035312;28;45381;-66
2022/06/04 09:13:52;;;;;;;;;11.00;11.00;;;;;;;;5035185;28;45369;-65
2022/06/04 09:16:28;;;;;;;;;14.33;12.67;;;;;;;;5034776;28;46352;-64
2022/06/04 09:18:56;;;;;;;;;12.33;12.33;;;;;;;;5037183;28;45532;-65
2022/06/04 09:21:32;;;;;;;;;14.33;13.33;;;;;;;;5036567;28;46439;-65
2022/06/04 09:23:57;;;;;;;;;16.67;16.67;;;;;;;;5029220;28;45389;-65
2022/06/04 09:26:27;;;;;;;;;13.67;13.67;;;;;;;;5035499;28;46086;-65
2022/06/04 09:29:08;;;;;;;;;17.67;15.67;;;;;;;;5042247;28;45341;-65
2022/06/04 09:31:39;;;;;;;;;18.00;15.00;;;;;;;;5045108;28;45453;-65
2022/06/04 09:34:08;;;;;;;;;16.33;14.00;;;;;;;;5018158;28;45480;-64
2022/06/04 09:36:34;;;;;;;;;14.33;14.33;;;;;;;;5033902;28;47094;-66
2022/06/04 09:39:04;;;;;;;;;13.67;13.00;;;;;;;;5035538;28;45432;-66
2022/06/04 09:41:31;;;;;;;;;20.33;15.00;;;;;;;;5036167;28;45597;-65
2022/06/04 09:44:08;;;;;;;;;16.67;16.67;;;;;;;;5035232;28;45364;-65
2022/06/04 09:46:34;;;;;;;;;15.67;15.33;;;;;;;;5036370;28;46688;-66
2022/06/04 09:49:00;;;;;;;;;22.00;18.00;;;;;;;;5035916;28;45375;-66
2022/06/04 09:51:27;;;;;;;;;18.00;16.67;;;;;;;;5036158;28;45448;-66
2022/06/04 09:54:03;;;;;;;;;21.33;18.67;;;;;;;;5035805;28;45354;-66
2022/06/04 09:56:36;;;;;;;;;15.00;14.00;;;;;;;;5049679;28;46333;-66
2022/06/04 09:59:14;;;;;;;;;21.00;15.00;;;;;;;;5056130;28;45766;-66
2022/06/04 10:01:39;;;;;;;;;20.00;17.33;;;;;;;;5053546;28;45746;-65
2022/06/04 10:04:12;;;;;;;;;14.00;14.00;;;;;;;;5056562;28;45344;-65
2022/06/04 10:06:37;;;;;;;;;17.00;15.00;;;;;;;;5056054;28;46446;-65
2022/06/04 10:11:49;;;;;;;;;19.00;18.67;;;;;;;;5016370;28;45410;-66
2022/06/04 10:14:14;;;;;;;;;15.00;15.00;;;;;;;;5016364;28;45429;-65
2022/06/04 10:16:41;;;;;;;;;16.67;16.67;;;;;;;;5013841;28;45523;-65
2022/06/04 10:19:13;;;;;;;;;21.33;19.33;;;;;;;;5028146;28;45719;-65
2022/06/04 10:21:41;;;;;;;;;17.33;16.00;;;;;;;;5035933;28;45504;-64
2022/06/04 10:24:18;;;;;;;;;21.67;18.67;;;;;;;;5036523;28;45401;-66
2022/06/04 10:26:54;;;;;;;;;23.33;18.33;;;;;;;;5054208;28;45475;-66
2022/06/04 10:29:25;;;;;;;;;17.67;17.00;;;;;;;;5056611;28;45426;-66
2022/06/04 10:32:02;;;;;;;;;16.67;14.33;;;;;;;;5039240;28;45410;-66
2022/06/04 10:34:35;;;;;;;;;19.00;17.33;;;;;;;;5039923;28;45413;-66
2022/06/04 10:37:01;;;;;;;;;19.00;17.67;;;;;;;;5038509;28;45396;-66
2022/06/04 10:39:44;;;;;;;;;19.67;17.67;;;;;;;;5039254;28;45393;-66
2022/06/04 10:42:22;;;;;;;;;23.00;20.00;;;;;;;;5043232;28;45519;-66
2022/06/04 10:45:13;;;;;;;;;22.67;17.67;;;;;;;;5037149;28;45483;-66
2022/06/04 10:47:48;;;;;;;;;22.67;19.67;;;;;;;;5058124;28;46398;-66
2022/06/04 10:50:13;;;;;;;;;23.33;21.33;;;;;;;;5059509;28;45435;-65
2022/06/04 10:52:46;;;;;;;;;23.00;21.33;;;;;;;;5059291;28;45656;-65
2022/06/04 10:55:20;;;;;;;;;21.67;20.33;;;;;;;;5059497;28;45494;-66
2022/06/04 10:57:48;;;;;;;;;18.67;17.67;;;;;;;;5049531;28;46297;-65
2022/06/04 11:00:29;;;;;;;;;27.00;22.00;;;;;;;;5038392;28;45282;-65
2022/06/04 11:02:57;;;;;;;;;19.67;16.33;;;;;;;;5037804;28;45453;-66
2022/06/04 11:05:29;;;;;;;;;25.33;22.33;;;;;;;;5039355;28;45387;-65
2022/06/04 11:08:06;;;;;;;;;27.00;24.00;;;;;;;;5040065;28;46532;-66
2022/06/04 11:10:39;;;;;;;;;22.67;19.67;;;;;;;;5027642;28;45410;-65
2022/06/04 11:13:27;;;;;;;;;26.33;23.00;;;;;;;;5038801;28;45451;-65
2022/06/04 11:15:58;;;;;;;;;22.67;20.67;;;;;;;;4997042;28;45453;-65
2022/06/04 11:18:28;;;;;;;;;23.00;21.67;;;;;;;;4996071;28;46605;-65
2022/06/04 11:21:11;;;;;;;;;20.67;19.33;;;;;;;;4997017;28;45349;-66
2022/06/04 11:23:54;;;;;;;;;28.33;21.33;;;;;;;;4997150;28;45484;-66
2022/06/04 11:26:31;;;;;;;;;21.67;20.00;;;;;;;;4997132;28;45592;-67
2022/06/04 11:28:59;;;;;;;;;20.33;20.33;;;;;;;;4996644;28;46261;-66
2022/06/04 11:31:24;;;;;;;;;28.33;21.33;;;;;;;;4995629;28;45400;-66
2022/06/04 11:33:49;;;;;;;;;25.67;21.33;;;;;;;;4996214;28;45550;-66
2022/06/04 11:36:14;;;;;;;;;23.33;23.00;;;;;;;;4996442;28;45480;-65
2022/06/04 11:38:42;;;;;;;;;23.67;21.00;;;;;;;;4996133;28;46460;-66
2022/06/04 11:41:26;;;;;;;;;22.67;20.67;;;;;;;;4996500;28;45389;-65
2022/06/04 11:44:09;;;;;;;;;22.00;22.00;;;;;;;;4996527;28;45470;-66
2022/06/04 11:46:58;;;;;;;;;28.00;24.33;;;;;;;;4996456;28;45533;-66
2022/06/04 11:49:26;;;;;;;;;20.00;20.00;;;;;;;;4995046;28;46464;-66
2022/06/04 11:52:11;;;;;;;;;26.00;25.33;;;;;;;;4997462;28;45497;-66
2022/06/04 11:54:39;;;;;;;;;28.33;27.00;;;;;;;;5034520;28;45396;-66
2022/06/04 11:57:07;;;;;;;;;28.33;25.67;;;;;;;;5036500;28;45857;-66
2022/06/04 11:59:51;;;;;;;;;24.67;22.00;;;;;;;;5037170;28;46066;-66
2022/06/04 12:02:24;;;;;;;;;25.00;23.00;;;;;;;;5037974;28;45448;-66
2022/06/04 12:05:03;;;;;;;;;29.67;24.67;;;;;;;;5037199;28;45495;-66
2022/06/04 12:07:35;;;;;;;;;25.33;22.00;;;;;;;;5023664;28;45366;-65
2022/06/04 12:10:23;;;;;;;;;27.33;22.33;;;;;;;;5037351;28;46495;-66
2022/06/04 12:13:00;;;;;;;;;23.33;23.33;;;;;;;;5037576;28;45545;-66
2022/06/04 12:15:40;;;;;;;;;29.33;23.33;;;;;;;;5037964;28;45484;-66
2022/06/04 12:18:24;;;;;;;;;29.00;26.00;;;;;;;;5037562;28;45476;-66
2022/06/04 12:26:36;;;;;;;;;29.33;27.33;;;;;;;;5037934;28;45377;-66
2022/06/04 12:29:22;;;;;;;;;24.33;21.33;;;;;;;;5037911;28;45374;-65
2022/06/04 12:31:54;;;;;;;;;27.33;23.67;;;;;;;;5014861;28;46532;-66
2022/06/04 12:34:24;;;;;;;;;26.33;26.33;;;;;;;;5015173;28;45429;-66
2022/06/04 12:36:50;;;;;;;;;26.67;25.33;;;;;;;;5015435;28;45311;-66
2022/06/04 12:39:23;;;;;;;;;27.00;21.67;;;;;;;;5015257;28;45495;-66
2022/06/04 12:41:54;;;;;;;;;23.67;22.33;;;;;;;;5015189;28;45804;-66
2022/06/04 12:44:24;;;;;;;;;28.67;26.33;;;;;;;;5015240;28;45527;-66
2022/06/04 12:46:51;;;;;;;;;27.33;25.67;;;;;;;;5014319;28;45539;-67
2022/06/04 12:49:25;;;;;;;;;24.00;22.00;;;;;;;;5015222;28;45329;-66
2022/06/04 12:52:01;;;;;;;;;18.33;18.33;;;;;;;;4997650;28;46343;-66
2022/06/04 12:54:34;;;;;;;;;25.33;20.67;;;;;;;;5014949;28;45516;-66
2022/06/04 12:57:21;;;;;;;;;22.00;21.67;;;;;;;;5001849;28;45407;-66
2022/06/04 12:59:48;;;;;;;;;29.00;25.33;;;;;;;;4994309;28;45479;-66
2022/06/04 13:02:30;;;;;;;;;22.00;20.00;;;;;;;;4995164;28;45400;-66
2022/06/04 13:05:08;;;;;;;;;23.67;23.67;;;;;;;;4998596;28;45355;-66
2022/06/04 13:07:37;;;;;;;;;22.00;20.33;;;;;;;;5005472;28;45558;-65
2022/06/04 13:10:04;;;;;;;;;19.00;19.00;;;;;;;;5024920;28;45576;-65
2022/06/04 13:12:29;;;;;;;;;22.67;20.33;;;;;;;;5023367;28;48082;-65
2022/06/04 13:15:11;;;;;;;;;26.67;21.00;;;;;;;;5016040;28;45585;-65
2022/06/04 13:17:42;;;;;;;;;24.00;22.67;;;;;;;;5031267;28;46167;-66
2022/06/04 13:20:27;;;;;;;;;26.00;21.67;;;;;;;;5017225;28;45387;-65
2022/06/04 13:22:52;;;;;;;;;24.33;21.67;;;;;;;;5017038;28;46355;-65
2022/06/04 13:25:21;;;;;;;;;20.00;18.67;;;;;;;;5017436;28;45244;-65
2022/06/04 13:27:56;;;;;;;;;25.33;20.67;;;;;;;;5017473;28;45358;-65
2022/06/04 13:30:35;;;;;;;;;26.00;22.00;;;;;;;;5017153;28;45327;-65
2022/06/04 13:33:10;;;;;;;;;18.33;15.67;;;;;;;;5017057;28;45370;-65
2022/06/04 13:35:42;;;;;;;;;26.67;22.00;;;;;;;;5017163;28;45359;-65
2022/06/04 13:38:11;;;;;;;;;28.67;23.33;;;;;;;;5017582;28;45367;-65
2022/06/04 13:40:39;;;;;;;;;25.33;22.67;;;;;;;;5017532;28;45199;-65
2022/06/04 13:43:07;;;;;;;;;23.00;21.67;;;;;;;;5017331;28;45579;-65
2022/06/04 13:45:36;;;;;;;;;24.33;21.33;;;;;;;;5016911;28;45282;-65
2022/06/04 13:48:15;;;;;;;;;25.00;22.00;;;;;;;;5017746;28;45465;-65
2022/06/04 13:50:48;;;;;;;;;24.00;22.33;;;;;;;;5017220;28;45358;-65
2022/06/04 13:53:16;;;;;;;;;26.67;24.67;;;;;;;;5025837;28;45687;-65
2022/06/04 13:55:45;;;;;;;;;26.00;24.67;;;;;;;;5036359;28;45340;-65
2022/06/04 13:58:17;;;;;;;;;21.67;18.67;;;;;;;;5037971;28;45356;-66
2022/06/04 14:00:46;;;;;;;;;24.67;24.33;;;;;;;;5040887;28;45376;-65
2022/06/04 14:03:16;;;;;;;;;25.00;21.67;;;;;;;;5040416;28;46218;-65
2022/06/04 14:05:46;;;;;;;;;19.67;18.67;;;;;;;;5040088;28;45461;-64
2022/06/04 14:08:13;;;;;;;;;19.33;18.67;;;;;;;;5040581;28;45208;-65
2022/06/04 14:10:38;;;;;;;;;16.00;16.00;;;;;;;;5039352;28;45531;-64
2022/06/04 14:13:11;;;;;;;;;22.33;19.67;;;;;;;;5040361;28;46923;-65
2022/06/04 14:16:11;;;;;;;;;19.67;19.67;;;;;;;;5040195;28;45393;-65
2022/06/04 14:18:55;;;;;;;;;22.00;21.00;;;;;;;;4998359;28;45364;-65
2022/06/04 14:21:23;;;;;;;;;22.67;20.00;;;;;;;;4998699;28;45557;-65
2022/06/04 14:23:48;;;;;;;;;19.67;17.00;;;;;;;;4997992;28;46042;-65
2022/06/04 14:26:19;;;;;;;;;19.67;19.00;;;;;;;;4998255;28;45314;-65
2022/06/04 14:28:57;;;;;;;;;22.00;20.67;;;;;;;;4998650;28;45331;-65
2022/06/04 14:31:22;;;;;;;;;19.67;19.33;;;;;;;;4998605;28;45477;-65
2022/06/04 14:33:48;;;;;;;;;18.33;18.00;;;;;;;;4981523;28;48748;-65
2022/06/04 14:36:17;;;;;;;;;14.00;14.00;;;;;;;;4998303;28;45291;-65
2022/06/04 14:38:43;;;;;;;;;18.67;18.67;;;;;;;;4998144;28;45259;-65
2022/06/04 14:41:20;;;;;;;;;21.00;21.00;;;;;;;;4998182;28;45517;-65
2022/06/04 14:43:46;;;;;;;;;23.67;20.33;;;;;;;;4998022;28;45456;-65
2022/06/04 14:46:12;;;;;;;;;17.67;16.00;;;;;;;;4997821;28;45363;-65
2022/06/04 14:49:12;;;;;;;;;18.33;17.00;;;;;;;;4998127;28;45480;-65
2022/06/04 14:51:56;;;;;;;;;19.67;19.67;;;;;;;;4943320;28;45296;-65
2022/06/04 14:54:22;;;;;;;;;20.67;20.67;;;;;;;;4978112;28;45572;-65